createdAt,value
2018-07-16T00:01:46.222Z,99.90
2018-07-16T00:06:48.347Z,99.90
2018-07-16T00:11:50.512Z,99.90
2018-07-16T00:16:52.693Z,99.90
2018-07-16T00:21:54.850Z,99.90
2018-07-16T00:26:57.093Z,99.90
2018-07-16T00:31:59.202Z,99.90
2018-07-16T00:37:01.353Z,99.90
2018-07-16T00:42:03.486Z,99.90
2018-07-16T00:47:05.714Z,99.90
2018-07-16T00:52:07.851Z,99.90
2018-07-16T00:57:09.982Z,99.90
2018-07-16T01:02:12.109Z,99.90
2018-07-16T01:07:14.245Z,99.90
2018-07-16T01:12:16.366Z,99.90
2018-07-16T01:17:18.485Z,99.90
2018-07-16T01:22:20.577Z,99.90
2018-07-16T01:27:22.694Z,99.90
2018-07-16T01:32:24.793Z,99.90
2018-07-16T01:37:26.916Z,99.90
2018-07-16T01:42:29.047Z,99.90
2018-07-16T01:47:31.157Z,99.90
2018-07-16T01:52:33.281Z,99.90
2018-07-16T01:57:35.406Z,99.90
2018-07-16T02:02:37.529Z,99.90
2018-07-16T02:07:39.637Z,99.90
2018-07-16T02:17:50.807Z,99.90
2018-07-16T02:22:52.945Z,99.90
2018-07-16T02:27:55.381Z,99.90
2018-07-16T02:32:57.517Z,99.90
2018-07-16T02:37:59.650Z,99.90
2018-07-16T02:43:01.826Z,99.90
2018-07-16T02:48:04.287Z,99.90
2018-07-16T02:53:06.430Z,99.90
2018-07-16T02:58:08.549Z,99.90
2018-07-16T03:03:10.677Z,99.90
2018-07-16T03:08:12.786Z,99.90
2018-07-16T03:13:14.950Z,99.90
2018-07-16T03:18:17.061Z,99.90
2018-07-16T03:23:19.177Z,99.90
2018-07-16T03:28:21.304Z,99.90
2018-07-16T03:33:23.447Z,99.90
2018-07-16T03:38:25.565Z,99.90
2018-07-16T03:43:27.705Z,99.90
2018-07-16T03:48:29.822Z,99.90
2018-07-16T03:53:31.925Z,99.90
2018-07-16T03:58:34.084Z,99.90
2018-07-16T04:03:36.184Z,99.90
2018-07-16T04:08:38.289Z,99.90
2018-07-16T04:13:40.427Z,99.90
2018-07-16T04:18:42.597Z,99.90
2018-07-16T04:23:44.689Z,99.90
2018-07-16T04:28:46.901Z,99.70
2018-07-16T04:33:48.997Z,98.10
2018-07-16T04:38:51.105Z,98.20
2018-07-16T04:43:53.241Z,96.80
2018-07-16T04:48:55.366Z,99.90
2018-07-16T04:53:57.484Z,99.80
2018-07-16T04:58:59.610Z,99.80
2018-07-16T05:04:01.713Z,99.90
2018-07-16T05:09:04.837Z,99.90
2018-07-16T05:14:06.949Z,99.80
2018-07-16T05:19:09.069Z,99.90
2018-07-16T05:24:11.266Z,99.90
2018-07-16T05:29:13.309Z,99.90
2018-07-16T05:34:15.413Z,99.90
2018-07-16T05:39:17.539Z,97.30
2018-07-16T05:44:19.673Z,98.70
2018-07-16T05:49:21.802Z,90.00
2018-07-16T05:54:23.929Z,82.10
2018-07-16T05:59:26.042Z,85.90
2018-07-16T06:04:28.160Z,85.60
2018-07-16T06:09:30.269Z,86.80
2018-07-16T06:14:32.381Z,89.30
2018-07-16T06:19:34.497Z,89.90
2018-07-16T06:24:36.630Z,92.50
2018-07-16T06:29:38.749Z,92.20
2018-07-16T06:34:40.899Z,90.60
2018-07-16T06:39:43.071Z,82.10
2018-07-16T06:44:45.133Z,79.70
2018-07-16T06:49:47.243Z,82.00
2018-07-16T06:54:49.350Z,79.20
2018-07-16T06:59:51.473Z,79.40
2018-07-16T07:04:53.637Z,77.80
2018-07-16T07:09:55.769Z,76.90
2018-07-16T07:14:57.933Z,76.00
2018-07-16T07:20:00.051Z,73.80
2018-07-16T07:25:02.178Z,77.40
2018-07-16T07:30:04.554Z,73.60
2018-07-16T07:35:06.868Z,65.10
2018-07-16T07:40:08.901Z,61.80
2018-07-16T07:45:11.041Z,57.50
2018-07-16T07:50:13.191Z,55.30
2018-07-16T07:55:15.671Z,53.60
2018-07-16T08:00:17.453Z,53.30
2018-07-16T08:05:19.581Z,51.90
2018-07-16T08:10:21.718Z,51.40
2018-07-16T08:15:23.886Z,52.80
2018-07-16T08:20:26.013Z,50.10
2018-07-16T08:25:28.157Z,48.40
2018-07-16T08:30:30.282Z,48.80
2018-07-16T08:35:32.401Z,50.70
2018-07-16T08:40:34.537Z,49.80
2018-07-16T08:45:36.666Z,47.80
2018-07-16T08:50:38.855Z,48.90
2018-07-16T08:55:41.008Z,47.20
2018-07-16T09:00:43.121Z,47.40
2018-07-16T09:05:45.277Z,42.40
2018-07-16T09:10:47.456Z,45.80
2018-07-16T09:15:49.921Z,44.40
2018-07-16T09:20:52.030Z,42.30
2018-07-16T09:25:54.145Z,42.10
2018-07-16T09:30:56.284Z,44.50
2018-07-16T09:35:58.433Z,42.00
2018-07-16T09:41:00.594Z,41.40
2018-07-16T09:46:02.714Z,40.40
2018-07-16T09:51:04.949Z,41.10
2018-07-16T09:56:07.238Z,38.00
2018-07-16T10:01:15.268Z,36.30
2018-07-16T10:06:17.401Z,34.80
2018-07-16T10:11:19.533Z,36.00
2018-07-16T10:16:21.659Z,35.00
2018-07-16T10:21:23.797Z,34.90
2018-07-16T10:26:25.950Z,35.10
2018-07-16T10:31:28.089Z,33.90
2018-07-16T10:36:30.184Z,34.90
2018-07-16T10:41:32.301Z,34.90
2018-07-16T10:46:34.426Z,34.50
2018-07-16T10:51:36.549Z,33.30
2018-07-16T10:56:38.674Z,33.90
2018-07-16T11:01:40.878Z,33.40
2018-07-16T11:06:42.994Z,34.30
2018-07-16T11:11:45.114Z,34.90
2018-07-16T11:16:47.264Z,33.90
2018-07-16T11:21:49.389Z,32.20
2018-07-16T11:26:51.510Z,31.30
2018-07-16T11:31:53.617Z,32.30
2018-07-16T11:36:55.730Z,31.50
2018-07-16T11:41:57.853Z,31.30
2018-07-16T11:46:59.969Z,31.80
2018-07-16T11:52:02.105Z,30.80
2018-07-16T11:57:04.238Z,31.00
2018-07-16T12:02:06.350Z,31.00
2018-07-16T12:07:08.465Z,30.30
2018-07-16T12:12:10.649Z,30.90
2018-07-16T12:17:12.728Z,31.40
2018-07-16T12:22:14.841Z,31.00
2018-07-16T12:27:16.986Z,32.70
2018-07-16T12:32:19.102Z,32.20
2018-07-16T12:37:21.237Z,31.80
2018-07-16T12:42:23.350Z,31.90
2018-07-16T12:47:25.473Z,31.90
2018-07-16T12:52:27.597Z,31.20
2018-07-16T12:57:29.718Z,30.60
2018-07-16T13:02:31.833Z,31.20
2018-07-16T13:07:33.937Z,31.50
2018-07-16T13:12:36.061Z,31.80
2018-07-16T13:17:38.186Z,30.50
2018-07-16T13:22:40.323Z,29.80
2018-07-16T13:27:42.449Z,29.90
2018-07-16T13:32:44.564Z,29.70
2018-07-16T13:37:46.721Z,30.30
2018-07-16T13:42:48.988Z,30.20
2018-07-16T13:47:51.102Z,30.80
2018-07-16T13:52:54.103Z,30.20
2018-07-16T13:57:56.253Z,29.70
2018-07-16T14:02:58.433Z,29.80
2018-07-16T14:08:00.552Z,31.90
2018-07-16T14:13:02.681Z,31.40
2018-07-16T14:18:04.809Z,32.20
2018-07-16T14:23:06.938Z,30.80
2018-07-16T14:28:09.394Z,31.50
2018-07-16T14:33:11.549Z,30.30
2018-07-16T14:38:13.698Z,30.50
2018-07-16T14:43:15.821Z,31.00
2018-07-16T14:48:17.926Z,30.30
2018-07-16T14:53:20.054Z,30.30
2018-07-16T14:58:22.169Z,30.20
2018-07-16T15:03:24.298Z,30.30
2018-07-16T15:08:26.576Z,29.00
2018-07-16T15:13:28.685Z,30.10
2018-07-16T15:18:30.889Z,30.30
2018-07-16T15:23:33.017Z,30.00
2018-07-16T15:28:35.134Z,30.10
2018-07-16T15:33:37.254Z,29.90
2018-07-16T15:38:39.387Z,29.40
2018-07-16T15:43:41.808Z,29.90
2018-07-16T15:48:43.959Z,29.80
2018-07-16T15:53:46.118Z,30.10
2018-07-16T15:58:48.246Z,29.80
2018-07-16T16:03:50.401Z,30.30
2018-07-16T16:08:52.592Z,31.90
2018-07-16T16:13:54.719Z,31.00
2018-07-16T16:18:56.825Z,30.50
2018-07-16T16:23:58.937Z,37.80
2018-07-16T16:29:01.113Z,51.90
2018-07-16T16:34:03.362Z,42.10
2018-07-16T16:39:06.557Z,48.10
2018-07-16T16:44:08.694Z,50.20
2018-07-16T16:49:10.918Z,46.00
2018-07-16T16:54:12.954Z,58.60
2018-07-16T16:59:15.083Z,63.10
2018-07-16T17:04:17.193Z,53.80
2018-07-16T17:09:19.350Z,57.40
2018-07-16T17:14:21.477Z,50.20
2018-07-16T17:19:23.653Z,52.10
2018-07-16T17:24:25.729Z,70.60
2018-07-16T17:29:27.854Z,79.00
2018-07-16T17:34:29.985Z,78.80
2018-07-16T17:39:32.086Z,75.90
2018-07-16T17:44:34.234Z,73.20
2018-07-16T17:49:36.425Z,70.90
2018-07-16T17:54:38.526Z,72.70
2018-07-16T17:59:40.649Z,70.50
2018-07-16T18:04:42.790Z,63.90
2018-07-16T18:09:44.918Z,59.70
2018-07-16T18:14:47.051Z,60.80
2018-07-16T18:19:49.195Z,62.80
2018-07-16T18:24:51.302Z,58.90
2018-07-16T18:29:53.421Z,60.60
2018-07-16T18:34:55.560Z,59.40
2018-07-16T18:39:57.669Z,70.60
2018-07-16T18:44:59.809Z,68.00
2018-07-16T18:50:01.948Z,61.60
2018-07-16T18:55:04.333Z,56.70
2018-07-16T19:00:08.074Z,56.50
2018-07-16T19:05:10.215Z,58.40
2018-07-16T19:10:12.342Z,61.60
2018-07-16T19:15:24.805Z,62.60
2018-07-16T19:20:27.131Z,63.10
2018-07-16T19:25:29.261Z,59.70
2018-07-16T19:30:31.378Z,59.40
2018-07-16T19:35:33.618Z,57.80
2018-07-16T19:40:35.678Z,57.90
2018-07-16T19:45:37.805Z,58.60
2018-07-16T19:50:40.158Z,58.20
2018-07-16T19:55:42.290Z,56.10
2018-07-16T20:00:45.169Z,55.90
2018-07-16T20:05:47.292Z,58.10
2018-07-16T20:10:49.443Z,61.70
2018-07-16T20:15:51.597Z,61.20
2018-07-16T20:20:55.807Z,57.80
2018-07-16T20:25:58.713Z,51.30
2018-07-16T20:31:00.865Z,51.30
2018-07-16T20:36:03.013Z,54.10
2018-07-16T20:41:05.153Z,55.90
2018-07-16T20:46:07.257Z,56.90
2018-07-16T20:51:09.373Z,63.30
2018-07-16T20:56:12.310Z,62.70
2018-07-16T21:01:14.441Z,63.20
2018-07-16T21:06:16.580Z,63.70
2018-07-16T21:11:18.728Z,69.80
2018-07-16T21:16:20.874Z,71.10
2018-07-16T21:21:23.169Z,71.30
2018-07-16T21:26:25.357Z,71.60
2018-07-16T21:31:27.489Z,75.70
2018-07-16T21:36:29.589Z,73.60
2018-07-16T21:41:31.702Z,75.80
2018-07-16T21:46:33.856Z,73.10
2018-07-16T21:51:35.934Z,74.00
2018-07-16T21:56:38.061Z,77.50
2018-07-16T22:01:40.207Z,78.80
2018-07-16T22:06:42.329Z,76.30
2018-07-16T22:11:44.458Z,77.70
2018-07-16T22:16:46.589Z,72.70
2018-07-16T22:21:48.709Z,75.00
2018-07-16T22:26:50.830Z,75.90
2018-07-16T22:31:52.965Z,80.70
2018-07-16T22:36:55.066Z,81.30
2018-07-16T22:41:57.194Z,79.70
2018-07-16T22:46:59.295Z,82.90
2018-07-16T22:52:01.410Z,81.60
2018-07-16T22:57:03.553Z,84.50
2018-07-16T23:02:05.693Z,85.40
2018-07-16T23:07:07.829Z,81.00
2018-07-16T23:23:03.238Z,83.10
2018-07-16T23:33:31.025Z,80.80
2018-07-16T23:38:33.141Z,79.90
2018-07-16T23:43:35.287Z,82.80
2018-07-16T23:48:37.414Z,83.20
2018-07-16T23:53:39.566Z,82.70
2018-07-16T23:58:41.706Z,85.20
